Terminal Aerodrome Forecast
Issued by NWS Twin Cities, MN

Home | Current Version | Previous Version | Graphics & Text | Print | Product List | Glossary On
Versions: 1 2 3 4 5 6 7 8 9 10 11 12 13 14 15 16 17 18 19 20 21 22 23
899
FTUS43 KMPX 280532
TAFMSP
TAF
KMSP 280532Z 2806/2912 VRB03KT P6SM SCT250
     FM281100 VRB02KT 4SM BR FEW250
     FM281400 06006KT P6SM FEW250=

USA.gov is the U.S. government's official web portal to all federal, state and local government web resources and services.